EDT,Max TemperatureF,Mean TemperatureF,Min TemperatureF,Max Dew PointF,MeanDew PointF,Min DewpointF,Max Humidity, Mean Humidity, Min Humidity, Max Sea Level PressureIn, Mean Sea Level PressureIn, Min Sea Level PressureIn, Max VisibilityMiles, Mean VisibilityMiles, Min VisibilityMiles, Max Wind SpeedMPH, Mean Wind SpeedMPH, Max Gust SpeedMPH,PrecipitationIn, CloudCover, Events, WindDirDegrees
2012-9-1,89,84,78,78,76,75,94,81,68,30.11,30.07,30.01,10,9,2,13,6,17,0.00,0,,250
2012-9-2,89,82,75,80,76,73,94,85,75,30.04,30.01,29.98,10,6,0,7,3,,T,2,Fog-Rain,136
2012-9-3,86,81,76,78,75,71,94,82,69,30.08,30.04,30.00,10,10,6,8,5,16,0.04,0,,120
2012-9-4,86,82,77,76,74,72,94,82,70,30.07,30.03,29.99,10,8,1,13,7,17,0.20,2,Rain,221
2012-9-5,86,82,78,76,74,72,85,78,70,29.99,29.96,29.91,10,10,6,13,11,21,T,1,Rain,227
2012-9-6,87,81,74,76,74,70,85,77,68,29.97,29.95,29.91,10,8,2,14,11,22,0.37,2,Rain,247
2012-9-7,87,81,75,76,74,72,94,79,63,29.97,29.92,29.89,10,9,1,15,5,23,0.23,3,Rain,217
2012-9-8,86,81,75,77,75,70,91,83,74,29.89,29.84,29.78,10,8,2,16,12,25,0.18,2,Rain,224
2012-9-9,81,77,73,76,69,59,93,77,61,29.91,29.82,29.77,10,8,1,14,7,21,0.44,7,Rain,22
2012-9-10,78,75,71,63,58,52,68,59,49,30.14,30.02,29.91,10,10,10,13,8,21,0.00,1,,18
2012-9-11,78,70,62,56,54,50,72,59,46,30.29,30.23,30.14,10,10,10,10,6,20,0.00,1,,39
2012-9-12,79,71,62,63,59,56,84,67,50,30.33,30.29,30.26,10,10,10,12,6,18,0.00,0,,48
2012-9-13,83,77,70,70,68,64,93,76,58,30.30,30.26,30.22,10,9,2,10,7,16,0.34,3,Rain,44
2012-9-14,76,74,71,72,70,67,93,89,84,30.22,30.17,30.14,10,8,0,16,4,18,0.65,7,Fog-Rain,62
2012-9-15,82,76,69,69,65,55,90,74,57,30.14,30.12,30.09,10,10,10,14,6,24,0.00,2,,34
2012-9-16,78,71,63,60,58,56,84,66,48,30.16,30.13,30.10,10,10,10,9,3,13,0.00,1,,43
2012-9-17,85,77,69,70,65,59,82,72,62,30.13,30.09,30.04,10,10,7,20,8,28,0.01,8,Rain,167
2012-9-18,83,78,73,75,72,68,85,77,69,30.02,29.90,29.83,10,6,0,29,18,43,0.70,6,Fog-Rain,198
2012-9-19,79,76,72,74,68,61,87,76,64,30.06,29.96,29.84,10,10,8,18,10,26,0.01,6,Rain,13
2012-9-20,77,73,69,67,65,62,84,76,68,30.10,30.06,30.03,10,9,2,15,9,25,0.03,5,Rain,31
2012-9-21,77,69,61,65,62,58,97,76,54,30.08,30.05,30.02,10,10,10,12,4,17,0.00,1,,39
2012-9-22,80,70,60,68,63,58,97,78,58,30.05,30.01,29.96,10,10,10,14,6,20,0.00,0,,239
2012-9-23,78,73,67,70,63,54,84,70,56,30.10,30.03,29.96,10,10,10,16,10,25,0.00,2,,3
2012-9-24,74,66,57,54,49,45,63,51,38,30.22,30.15,30.09,10,10,10,14,8,25,0.00,0,,39
2012-9-25,76,69,61,58,53,45,78,64,49,30.27,30.23,30.19,10,10,10,13,5,16,0.00,0,,50
2012-9-26,81,70,59,63,60,54,87,68,49,30.25,30.21,30.18,10,10,10,7,2,10,0.00,0,,35
2012-9-27,82,73,63,69,65,60,100,79,58,30.21,30.16,30.12,10,10,10,9,4,12,0.00,0,,35
2012-9-28,80,73,65,70,67,64,93,80,67,30.11,30.07,30.01,10,10,10,12,5,15,0.00,1,,239
2012-9-29,81,74,67,70,67,64,100,85,69,29.99,29.94,29.87,10,8,0,22,5,31,1.00,5,Fog-Rain,356
2012-9-30,76,71,66,66,63,61,90,75,60,29.91,29.87,29.85,10,9,2,9,4,16,0.28,6,Rain,27